Time;durP1;ratioP1;P1;durP2;ratioP2;P2;SDS_P1;SDS_P2;PMS_P1;PMS_P2;Temp;Humidity;BMP_temperature;BMP_pressure;BME280_temperature;BME280_humidity;BME280_pressure;Samples;Min_cycle;Max_cycle;Signal;HPM_P1;HPM_P2
2023/05/14 00:01:52;;;;;;;18.65;10.95;;;11.10;99.90;;;;;;4954227;28;20103;-79
2023/05/14 00:04:21;;;;;;;16.55;10.05;;;11.10;99.90;;;;;;4955865;29;20019;-79
2023/05/14 00:06:46;;;;;;;17.08;10.35;;;11.00;99.90;;;;;;4957247;28;20031;-79
2023/05/14 00:09:12;;;;;;;14.32;10.48;;;11.00;99.90;;;;;;4955722;29;20698;-79
2023/05/14 00:11:37;;;;;;;15.15;9.80;;;11.10;99.90;;;;;;4955826;29;20035;-80
2023/05/14 00:14:03;;;;;;;15.32;9.68;;;11.10;99.90;;;;;;4955912;28;20050;-79
2023/05/14 00:16:29;;;;;;;14.48;9.55;;;11.10;99.90;;;;;;4954914;29;20220;-79
2023/05/14 00:18:55;;;;;;;14.90;10.38;;;11.10;99.90;;;;;;4955697;29;20391;-79
2023/05/14 00:21:20;;;;;;;14.85;10.38;;;11.10;99.90;;;;;;4956985;29;20023;-79
2023/05/14 00:23:46;;;;;;;12.93;9.43;;;11.10;99.90;;;;;;4955508;29;20444;-79
2023/05/14 00:26:12;;;;;;;13.30;9.45;;;11.10;99.90;;;;;;4955570;29;20039;-80
2023/05/14 00:28:37;;;;;;;15.20;9.75;;;11.10;99.90;;;;;;4955451;29;20388;-78
2023/05/14 00:31:03;;;;;;;11.68;8.93;;;11.10;99.90;;;;;;4955528;28;20023;-79
2023/05/14 00:33:29;;;;;;;13.07;9.30;;;11.10;99.90;;;;;;4955669;29;20500;-79
2023/05/14 00:35:54;;;;;;;15.70;10.45;;;11.10;99.90;;;;;;4955447;28;20122;-79
2023/05/14 00:38:20;;;;;;;12.57;9.02;;;11.00;99.90;;;;;;4955325;29;20029;-79
2023/05/14 00:40:50;;;;;;;13.68;9.90;;;11.00;99.90;;;;;;4955337;29;20027;-79
2023/05/14 00:43:17;;;;;;;15.82;9.45;;;11.00;99.90;;;;;;4955498;29;20121;-79
2023/05/14 00:45:44;;;;;;;14.73;9.18;;;11.00;99.90;;;;;;4956403;28;20499;-79
2023/05/14 00:48:09;;;;;;;16.00;10.55;;;11.00;99.90;;;;;;4955181;28;20035;-79
2023/05/14 00:50:35;;;;;;;13.50;9.30;;;11.00;99.90;;;;;;4955173;29;20030;-79
2023/05/14 00:53:01;;;;;;;16.08;10.15;;;11.10;99.90;;;;;;4956296;29;20026;-79
2023/05/14 00:55:29;;;;;;;19.75;10.48;;;11.10;99.90;;;;;;4955003;29;20028;-79
2023/05/14 00:57:57;;;;;;;12.38;8.85;;;11.10;99.90;;;;;;4970518;28;20449;-79
2023/05/14 01:00:23;;;;;;;16.10;9.50;;;11.10;99.90;;;;;;4956304;29;20480;-79
2023/05/14 01:02:49;;;;;;;13.38;9.15;;;11.10;99.90;;;;;;4954998;28;20046;-79
2023/05/14 01:05:15;;;;;;;17.23;9.77;;;11.10;99.90;;;;;;4954801;29;20027;-79
2023/05/14 01:08:30;;;;;;;12.48;9.00;;;11.10;99.90;;;;;;4955813;29;20399;-79
2023/05/14 01:11:04;;;;;;;14.68;9.00;;;11.10;99.90;;;;;;4914661;29;20043;-79
2023/05/14 01:14:20;;;;;;;14.82;9.80;;;11.00;99.90;;;;;;4955845;28;20034;-80
2023/05/14 01:16:48;;;;;;;12.68;9.10;;;11.00;99.90;;;;;;4937991;29;20040;-79
2023/05/14 01:19:42;;;;;;;15.23;9.93;;;11.00;99.90;;;;;;4956026;29;20373;-79
2023/05/14 01:22:09;;;;;;;13.07;9.38;;;10.90;99.90;;;;;;4955974;29;20054;-79
2023/05/14 01:24:35;;;;;;;14.52;10.13;;;11.00;99.90;;;;;;4954277;29;20471;-79
2023/05/14 01:27:23;;;;;;;13.32;9.05;;;11.00;99.90;;;;;;4954360;29;20038;-79
2023/05/14 01:29:57;;;;;;;12.77;9.30;;;11.00;99.90;;;;;;4954506;29;20035;-79
2023/05/14 01:32:24;;;;;;;14.13;9.30;;;11.00;99.90;;;;;;4955795;28;20019;-79
2023/05/14 01:34:51;;;;;;;15.18;10.00;;;11.00;99.90;;;;;;4954089;28;20031;-79
2023/05/14 01:37:17;;;;;;;13.57;10.00;;;11.10;99.90;;;;;;4954247;29;20547;-79
2023/05/14 01:39:44;;;;;;;12.55;8.32;;;11.10;99.90;;;;;;4955562;28;20106;-78
2023/05/14 01:42:10;;;;;;;10.80;8.63;;;11.10;99.90;;;;;;4954370;29;20027;-79
2023/05/14 01:44:35;;;;;;;12.88;9.18;;;11.10;99.90;;;;;;4955206;29;20023;-79
2023/05/14 01:47:01;;;;;;;16.23;9.25;;;11.10;99.90;;;;;;4954228;29;20070;-79
2023/05/14 01:49:26;;;;;;;13.77;9.07;;;11.10;99.90;;;;;;4955212;29;20023;-79
2023/05/14 01:51:52;;;;;;;12.60;8.77;;;11.10;99.90;;;;;;4955228;29;20499;-79
2023/05/14 01:54:18;;;;;;;11.98;8.73;;;11.10;99.90;;;;;;4955221;29;20027;-79
2023/05/14 01:56:43;;;;;;;14.05;9.60;;;11.00;99.90;;;;;;4953859;29;20526;-79
2023/05/14 01:59:09;;;;;;;12.85;9.70;;;11.10;99.90;;;;;;4954985;29;20042;-79
2023/05/14 02:01:35;;;;;;;12.90;8.70;;;11.10;99.90;;;;;;4953988;29;20031;-79
2023/05/14 02:04:00;;;;;;;13.48;8.23;;;11.10;99.90;;;;;;4955007;29;20026;-79
2023/05/14 02:06:26;;;;;;;10.68;7.78;;;11.10;99.90;;;;;;4953898;29;20484;-79
2023/05/14 02:08:52;;;;;;;11.15;8.38;;;11.10;99.90;;;;;;4954491;28;20031;-79
2023/05/14 02:11:17;;;;;;;12.98;9.10;;;11.10;99.90;;;;;;4955007;29;20095;-79
2023/05/14 02:13:43;;;;;;;12.27;7.85;;;11.10;99.90;;;;;;4953758;29;20027;-79
2023/05/14 02:16:09;;;;;;;12.77;8.60;;;11.10;99.90;;;;;;4953492;28;20019;-79
2023/05/14 02:18:34;;;;;;;14.25;8.77;;;11.10;99.90;;;;;;4953448;29;20448;-79
2023/05/14 02:21:00;;;;;;;10.75;7.75;;;11.10;99.90;;;;;;4954825;29;20043;-79
2023/05/14 02:23:25;;;;;;;13.45;9.63;;;11.10;99.90;;;;;;4953631;29;20503;-79
2023/05/14 02:25:51;;;;;;;15.10;8.27;;;11.00;99.90;;;;;;4954117;28;20031;-79
2023/05/14 02:28:17;;;;;;;11.68;8.85;;;11.00;99.90;;;;;;4953297;29;20042;-79
2023/05/14 02:30:42;;;;;;;13.15;9.48;;;11.00;99.90;;;;;;4953343;29;20629;-79
2023/05/14 02:33:08;;;;;;;10.77;8.00;;;11.00;99.90;;;;;;4953492;29;20038;-79
2023/05/14 02:35:33;;;;;;;12.88;8.95;;;11.00;99.90;;;;;;4953243;29;20064;-79
2023/05/14 02:37:59;;;;;;;14.57;8.82;;;11.00;99.90;;;;;;4953216;29;20300;-79
2023/05/14 02:40:25;;;;;;;14.13;9.70;;;11.00;99.90;;;;;;4953341;29;20098;-79
2023/05/14 02:42:50;;;;;;;11.50;9.18;;;10.90;99.90;;;;;;4953299;29;20035;-79
2023/05/14 02:45:16;;;;;;;13.45;8.73;;;10.90;99.90;;;;;;4953246;29;20492;-79
2023/05/14 02:47:42;;;;;;;15.73;9.05;;;10.80;99.90;;;;;;4954386;28;20369;-79
2023/05/14 02:50:09;;;;;;;14.75;8.65;;;10.80;99.90;;;;;;4954512;28;20023;-79
2023/05/14 02:52:34;;;;;;;12.45;8.65;;;10.80;99.90;;;;;;4953135;29;20034;-79
2023/05/14 02:55:01;;;;;;;13.32;9.48;;;10.80;99.90;;;;;;4954221;29;20031;-79
2023/05/14 02:57:26;;;;;;;15.55;9.18;;;10.80;99.90;;;;;;4952948;29;20045;-80
2023/05/14 02:59:52;;;;;;;11.63;8.38;;;10.80;99.90;;;;;;4954300;29;20542;-79
2023/05/14 03:02:17;;;;;;;11.88;8.88;;;10.90;99.90;;;;;;4953067;29;20027;-79
2023/05/14 03:04:43;;;;;;;13.60;8.50;;;10.90;99.90;;;;;;4954045;29;20503;-79
2023/05/14 03:07:09;;;;;;;12.73;8.75;;;10.90;99.90;;;;;;4953241;29;20042;-79
2023/05/14 03:09:35;;;;;;;13.75;8.55;;;10.90;99.90;;;;;;4953618;28;20031;-79
2023/05/14 03:12:00;;;;;;;13.07;8.55;;;10.90;99.90;;;;;;4952992;29;20030;-79
2023/05/14 03:14:26;;;;;;;16.77;8.13;;;10.90;99.90;;;;;;4953955;29;20027;-80
2023/05/14 03:16:51;;;;;;;10.80;8.25;;;10.90;99.90;;;;;;4953039;28;20388;-79
2023/05/14 03:19:17;;;;;;;11.68;7.45;;;10.90;99.90;;;;;;4953878;29;20113;-79
2023/05/14 03:21:43;;;;;;;13.32;8.80;;;10.80;99.90;;;;;;4952763;29;20031;-79
2023/05/14 03:24:08;;;;;;;12.10;8.48;;;10.80;99.90;;;;;;4953893;28;20031;-79
2023/05/14 03:26:34;;;;;;;11.98;8.30;;;10.80;99.90;;;;;;4952492;29;20046;-80
2023/05/14 03:29:02;;;;;;;11.68;8.15;;;10.90;99.90;;;;;;4952658;29;20551;-79
2023/05/14 03:31:27;;;;;;;11.27;8.07;;;10.80;99.90;;;;;;4952642;29;20023;-79
2023/05/14 03:33:53;;;;;;;13.02;8.45;;;10.90;99.90;;;;;;4952667;28;20031;-79
2023/05/14 03:36:19;;;;;;;14.60;8.10;;;10.80;99.90;;;;;;4953869;28;20020;-79
2023/05/14 03:38:44;;;;;;;12.73;8.43;;;10.80;99.90;;;;;;4956154;29;20028;-79
2023/05/14 03:41:10;;;;;;;11.23;8.23;;;10.90;99.90;;;;;;4956538;28;20031;-79
2023/05/14 03:43:35;;;;;;;12.77;8.57;;;10.80;99.90;;;;;;4957570;29;20031;-79
2023/05/14 03:46:01;;;;;;;10.98;8.02;;;10.80;99.90;;;;;;4956329;29;20391;-79
2023/05/14 03:48:27;;;;;;;10.80;7.60;;;10.70;99.90;;;;;;4957529;29;20613;-79
2023/05/14 03:50:52;;;;;;;10.63;7.65;;;10.80;99.90;;;;;;4956467;29;20451;-79
2023/05/14 03:53:18;;;;;;;12.52;7.43;;;10.90;99.90;;;;;;4956370;29;20023;-79
2023/05/14 03:55:44;;;;;;;8.95;7.57;;;10.80;99.90;;;;;;4956215;29;20023;-79
2023/05/14 03:58:12;;;;;;;16.23;8.07;;;10.80;99.90;;;;;;4956105;29;20115;-79
2023/05/14 04:00:40;;;;;;;10.65;7.68;;;10.80;99.90;;;;;;4957482;28;20102;-79
2023/05/14 04:03:06;;;;;;;11.27;7.80;;;10.80;99.90;;;;;;4957347;29;20627;-79
2023/05/14 04:05:32;;;;;;;7.78;6.78;;;10.80;99.90;;;;;;4957161;28;20058;-79
2023/05/14 04:07:57;;;;;;;10.75;7.97;;;10.70;99.90;;;;;;4956543;29;20623;-79
2023/05/14 04:10:23;;;;;;;12.18;8.07;;;10.70;99.90;;;;;;4957157;29;20030;-79
2023/05/14 04:12:48;;;;;;;10.93;7.78;;;10.80;99.90;;;;;;4957059;29;20027;-79
2023/05/14 04:15:14;;;;;;;9.13;7.65;;;10.80;99.90;;;;;;4955611;29;20038;-80
2023/05/14 04:17:40;;;;;;;13.85;7.70;;;10.90;99.90;;;;;;4957010;28;20033;-79
2023/05/14 04:20:06;;;;;;;8.43;6.65;;;10.90;99.90;;;;;;4956007;29;20049;-80
2023/05/14 04:22:32;;;;;;;10.35;7.82;;;10.90;99.90;;;;;;4956969;29;20027;-79
2023/05/14 04:24:57;;;;;;;11.43;7.70;;;10.90;99.90;;;;;;4955783;29;20078;-79
2023/05/14 04:27:23;;;;;;;14.02;7.90;;;10.90;99.90;;;;;;4954835;28;20039;-79
2023/05/14 04:29:49;;;;;;;5.97;4.93;;;10.90;99.90;;;;;;4956577;29;20023;-80
2023/05/14 04:32:15;;;;;;;13.73;10.25;;;11.20;99.90;;;;;;4956795;29;20102;-80
2023/05/14 04:34:41;;;;;;;15.30;9.50;;;11.10;99.90;;;;;;4955286;29;20127;-79
2023/05/14 04:37:06;;;;;;;12.07;8.95;;;11.10;99.90;;;;;;4956718;28;20027;-79
2023/05/14 04:39:32;;;;;;;12.93;9.25;;;11.00;99.90;;;;;;4956669;29;20491;-79
2023/05/14 04:41:58;;;;;;;11.02;9.18;;;11.00;99.90;;;;;;4956485;28;20480;-80
2023/05/14 04:44:23;;;;;;;11.25;8.13;;;10.90;99.90;;;;;;4955338;29;20126;-78
2023/05/14 04:46:49;;;;;;;12.52;7.65;;;10.90;99.90;;;;;;4956201;29;20110;-79
2023/05/14 04:49:15;;;;;;;13.50;8.95;;;10.90;99.90;;;;;;4956738;28;20741;-79
2023/05/14 04:51:40;;;;;;;15.05;9.45;;;10.90;99.90;;;;;;4956581;29;20027;-80
2023/05/14 04:54:06;;;;;;;20.98;10.23;;;11.00;99.90;;;;;;4955403;29;20114;-79
2023/05/14 04:56:32;;;;;;;13.90;8.43;;;10.90;99.90;;;;;;4956473;29;20028;-80
2023/05/14 04:58:57;;;;;;;9.75;8.20;;;10.90;99.90;;;;;;4956541;28;20400;-80
2023/05/14 05:01:23;;;;;;;11.05;8.68;;;10.90;99.90;;;;;;4955120;29;20487;-80
2023/05/14 05:03:49;;;;;;;12.48;8.15;;;10.90;99.90;;;;;;4955106;28;20031;-80
2023/05/14 05:06:15;;;;;;;10.75;7.93;;;10.90;99.90;;;;;;4956355;28;20062;-80
2023/05/14 05:08:41;;;;;;;9.32;6.63;;;10.90;99.90;;;;;;4955048;29;20122;-79
2023/05/14 05:11:06;;;;;;;10.18;7.65;;;10.90;99.90;;;;;;4955083;29;20019;-79
2023/05/14 05:13:32;;;;;;;9.63;7.60;;;10.90;99.90;;;;;;4954548;28;20027;-78
2023/05/14 05:15:58;;;;;;;10.05;8.10;;;10.90;99.90;;;;;;4955825;29;20039;-78
2023/05/14 05:18:23;;;;;;;12.02;6.93;;;10.90;99.90;;;;;;4955763;29;20366;-79
2023/05/14 05:20:49;;;;;;;7.35;6.60;;;10.90;99.90;;;;;;4954701;29;20050;-78
2023/05/14 05:23:14;;;;;;;7.38;5.47;;;10.80;99.90;;;;;;4955720;28;20023;-78
2023/05/14 05:25:40;;;;;;;20.75;10.43;;;10.80;99.90;;;;;;4954331;29;20031;-78
2023/05/14 05:28:06;;;;;;;12.52;8.55;;;10.80;99.90;;;;;;4954197;29;20035;-78
2023/05/14 05:30:31;;;;;;;9.52;6.65;;;10.80;99.90;;;;;;4954075;29;20455;-79
2023/05/14 05:32:57;;;;;;;8.27;6.50;;;10.80;99.90;;;;;;4955820;28;20110;-79
2023/05/14 05:35:23;;;;;;;14.02;6.95;;;11.00;99.90;;;;;;4955753;29;20065;-79
2023/05/14 05:37:49;;;;;;;7.97;6.07;;;10.80;99.90;;;;;;4954249;29;20495;-79
2023/05/14 05:40:15;;;;;;;9.45;6.32;;;10.90;99.90;;;;;;4954332;29;20030;-80
2023/05/14 05:42:41;;;;;;;6.20;5.57;;;10.80;99.90;;;;;;4954707;28;20058;-80
2023/05/14 05:45:07;;;;;;;8.05;6.20;;;10.90;99.90;;;;;;4955833;29;20481;-80
2023/05/14 05:47:33;;;;;;;7.60;6.30;;;10.90;99.90;;;;;;4954678;29;20031;-80
2023/05/14 05:49:58;;;;;;;9.88;5.85;;;10.90;99.90;;;;;;4955580;29;20101;-79
2023/05/14 05:52:24;;;;;;;8.02;6.15;;;10.90;99.90;;;;;;4954287;29;20517;-80
2023/05/14 05:54:50;;;;;;;10.02;6.43;;;10.90;99.90;;;;;;4953909;28;20139;-80
2023/05/14 05:57:16;;;;;;;7.50;5.88;;;10.90;99.90;;;;;;4953966;29;20027;-79
2023/05/14 05:59:42;;;;;;;8.20;5.88;;;10.90;99.90;;;;;;4953184;28;20119;-80
2023/05/14 06:02:07;;;;;;;8.27;6.00;;;10.90;99.90;;;;;;4955135;29;20027;-80
2023/05/14 06:04:33;;;;;;;7.70;6.13;;;10.90;99.90;;;;;;4953836;28;20024;-80
2023/05/14 06:06:58;;;;;;;7.68;5.57;;;10.80;99.90;;;;;;4955278;29;20493;-81
2023/05/14 06:09:24;;;;;;;8.82;5.82;;;10.90;99.90;;;;;;4953955;29;20432;-79
2023/05/14 06:11:50;;;;;;;13.43;7.53;;;11.20;99.90;;;;;;4953624;29;20412;-80
2023/05/14 06:14:15;;;;;;;6.90;6.00;;;12.10;99.90;;;;;;4953542;28;20029;-80
2023/05/14 06:16:41;;;;;;;9.00;5.85;;;11.60;99.90;;;;;;4954790;29;20026;-79
2023/05/14 06:19:07;;;;;;;8.02;5.53;;;11.50;99.90;;;;;;4953479;29;20114;-80
2023/05/14 06:21:33;;;;;;;6.22;4.97;;;11.20;99.90;;;;;;4954816;29;20027;-80
2023/05/14 06:23:58;;;;;;;7.63;5.45;;;11.10;99.90;;;;;;4954208;28;20027;-80
2023/05/14 06:26:25;;;;;;;5.95;4.38;;;11.10;99.90;;;;;;4954561;29;20027;-79
2023/05/14 06:28:50;;;;;;;7.03;5.57;;;11.00;99.90;;;;;;4953459;29;20045;-79
2023/05/14 06:31:17;;;;;;;6.88;5.03;;;11.00;99.90;;;;;;4954639;29;20102;-79
2023/05/14 06:33:43;;;;;;;9.38;5.93;;;11.00;99.90;;;;;;4953334;28;20078;-80
2023/05/14 06:36:09;;;;;;;5.95;4.85;;;11.00;99.90;;;;;;4950747;29;20019;-80
2023/05/14 06:38:34;;;;;;;6.93;5.13;;;11.00;99.90;;;;;;4936736;29;20028;-79
2023/05/14 06:41:00;;;;;;;7.30;4.97;;;10.90;99.90;;;;;;4934234;29;20392;-80
2023/05/14 06:43:26;;;;;;;7.13;4.97;;;11.00;99.90;;;;;;4934152;29;20031;-79
2023/05/14 06:45:51;;;;;;;8.57;4.78;;;11.00;99.90;;;;;;4935265;29;20071;-80
2023/05/14 06:48:17;;;;;;;5.60;4.57;;;11.00;99.90;;;;;;4933944;29;20027;-79
2023/05/14 06:50:47;;;;;;;5.00;4.15;;;11.00;99.90;;;;;;4934067;29;20062;-81
2023/05/14 06:53:14;;;;;;;9.95;5.32;;;10.90;99.90;;;;;;4935132;29;20019;-80
2023/05/14 06:55:40;;;;;;;5.57;4.40;;;11.00;99.90;;;;;;4935079;29;20034;-80
2023/05/14 06:58:06;;;;;;;6.38;4.20;;;11.00;99.90;;;;;;4933867;29;20071;-79
2023/05/14 07:00:32;;;;;;;7.20;3.85;;;11.00;99.90;;;;;;4935154;29;20373;-80
2023/05/14 07:02:58;;;;;;;5.60;4.25;;;10.90;99.90;;;;;;4935081;29;20046;-80
2023/05/14 07:05:24;;;;;;;7.03;4.40;;;10.90;99.90;;;;;;4933643;29;20032;-80
2023/05/14 07:07:49;;;;;;;6.03;4.90;;;10.90;99.90;;;;;;4933634;29;20023;-79
2023/05/14 07:10:15;;;;;;;7.18;3.65;;;11.00;99.90;;;;;;4934891;29;20031;-80
2023/05/14 07:12:41;;;;;;;4.45;3.38;;;11.00;99.90;;;;;;4933554;29;20182;-80
2023/05/14 07:15:07;;;;;;;5.20;4.10;;;11.00;99.90;;;;;;4934791;29;20024;-79
2023/05/14 07:17:33;;;;;;;6.57;3.88;;;11.10;99.90;;;;;;4933635;29;20030;-80
2023/05/14 07:19:58;;;;;;;6.38;3.33;;;11.20;99.90;;;;;;4933754;29;20024;-81
2023/05/14 07:22:24;;;;;;;4.22;3.00;;;11.10;99.90;;;;;;4934643;29;20024;-79
2023/05/14 07:24:49;;;;;;;4.57;2.78;;;11.10;99.90;;;;;;4934743;29;20024;-80
2023/05/14 07:27:16;;;;;;;3.47;2.90;;;11.10;99.90;;;;;;4934659;29;20405;-79
2023/05/14 07:29:42;;;;;;;6.35;2.88;;;11.10;99.90;;;;;;4933701;29;20074;-80
2023/05/14 07:32:07;;;;;;;2.80;2.60;;;11.00;99.90;;;;;;4934909;29;20024;-80
2023/05/14 07:34:33;;;;;;;3.30;2.63;;;11.00;99.90;;;;;;4934567;29;20035;-80
2023/05/14 07:36:59;;;;;;;3.53;3.17;;;11.00;99.90;;;;;;4933624;29;20024;-80
2023/05/14 07:39:25;;;;;;;4.88;3.10;;;11.00;99.90;;;;;;4934628;29;20024;-80
2023/05/14 07:41:51;;;;;;;3.92;2.95;;;11.00;99.90;;;;;;4934806;29;20031;-80
2023/05/14 07:44:16;;;;;;;4.35;2.92;;;11.00;99.90;;;;;;4933420;29;20051;-79
2023/05/14 07:46:42;;;;;;;4.43;3.42;;;11.00;99.90;;;;;;4934027;29;20028;-78
2023/05/14 07:49:08;;;;;;;3.50;2.63;;;11.00;99.90;;;;;;4937332;29;20028;-81
2023/05/14 07:51:33;;;;;;;4.07;2.65;;;11.00;99.90;;;;;;4936185;29;20028;-80
2023/05/14 07:53:59;;;;;;;3.00;2.60;;;11.00;99.90;;;;;;4934026;29;20023;-81
2023/05/14 07:56:25;;;;;;;2.75;2.47;;;11.00;99.90;;;;;;4934037;29;20032;-82
2023/05/14 07:58:51;;;;;;;2.72;2.30;;;10.60;99.90;;;;;;4935310;29;20075;-81
2023/05/14 08:01:17;;;;;;;2.53;2.33;;;10.90;99.90;;;;;;4934142;29;20035;-81
2023/05/14 08:06:20;;;;;;;2.22;2.03;;;11.00;99.90;;;;;;5413832;23;20086;-81
2023/05/14 08:08:46;;;;;;;2.03;1.55;;;11.20;99.90;;;;;;4972581;28;20026;-80
2023/05/14 08:11:12;;;;;;;2.35;1.60;;;11.10;99.90;;;;;;4972938;28;20035;-81
2023/05/14 08:13:38;;;;;;;2.35;1.63;;;10.80;99.90;;;;;;4972639;28;20041;-81
2023/05/14 08:16:04;;;;;;;1.48;1.38;;;10.90;99.90;;;;;;4973364;28;20026;-81
2023/05/14 08:18:30;;;;;;;1.63;1.42;;;10.90;99.90;;;;;;4975652;28;20031;-82
2023/05/14 08:20:55;;;;;;;3.22;2.88;;;10.80;99.90;;;;;;4976342;28;20439;-81
2023/05/14 08:23:21;;;;;;;1.58;1.48;;;10.60;99.90;;;;;;4974910;28;20042;-81
2023/05/14 08:25:47;;;;;;;2.22;2.03;;;11.00;99.90;;;;;;4975861;28;20034;-80
2023/05/14 08:28:13;;;;;;;1.77;1.65;;;10.80;99.90;;;;;;4975964;28;20027;-81
2023/05/14 08:30:39;;;;;;;2.38;1.95;;;11.20;99.90;;;;;;4975933;28;20412;-81
2023/05/14 08:33:04;;;;;;;1.40;1.30;;;10.90;99.90;;;;;;4972995;28;20081;-78
2023/05/14 08:35:30;;;;;;;1.70;1.20;;;11.00;99.90;;;;;;4973978;28;20027;-77
2023/05/14 08:37:56;;;;;;;1.50;1.17;;;11.10;99.90;;;;;;4975153;28;20022;-77
2023/05/14 08:40:21;;;;;;;1.35;1.25;;;11.10;99.90;;;;;;4976322;28;20392;-76
2023/05/14 08:42:47;;;;;;;3.08;2.80;;;11.10;99.90;;;;;;4974492;28;20076;-76
2023/05/14 08:45:24;;;;;;;3.10;2.47;;;11.20;99.90;;;;;;4975524;28;20027;-76
2023/05/14 08:47:50;;;;;;;1.92;1.63;;;11.20;99.90;;;;;;4980827;28;20484;-82
2023/05/14 08:50:28;;;;;;;1.50;1.40;;;11.10;99.90;;;;;;4978359;28;20035;-82
2023/05/14 08:52:57;;;;;;;2.28;1.17;;;11.30;99.90;;;;;;4983739;28;20051;-84
2023/05/14 08:55:24;;;;;;;0.90;0.90;;;11.20;99.90;;;;;;4977301;28;20026;-81
2023/05/14 08:57:50;;;;;;;1.67;1.40;;;11.30;99.90;;;;;;4975987;28;20530;-78
2023/05/14 09:00:17;;;;;;;1.38;0.82;;;11.30;99.90;;;;;;4974432;28;20034;-78
2023/05/14 09:02:46;;;;;;;0.90;0.90;;;11.20;99.90;;;;;;5197785;23;20756;-82
2023/05/14 09:05:12;;;;;;;3.60;1.23;;;11.20;99.90;;;;;;4957801;29;20063;-80
2023/05/14 09:07:38;;;;;;;0.90;0.90;;;11.10;99.90;;;;;;4956739;28;20027;-81
2023/05/14 09:10:05;;;;;;;1.00;1.00;;;11.10;99.90;;;;;;4956106;28;20031;-83
2023/05/14 09:12:30;;;;;;;1.20;1.10;;;11.10;99.90;;;;;;4956854;29;20077;-81
2023/05/14 09:14:56;;;;;;;1.08;1.08;;;11.00;99.90;;;;;;4957643;28;20484;-78
2023/05/14 09:17:25;;;;;;;0.90;0.90;;;11.10;99.90;;;;;;4956060;29;20401;-79
2023/05/14 09:19:51;;;;;;;0.82;0.80;;;11.30;99.90;;;;;;4954582;28;20070;-79
2023/05/14 09:22:17;;;;;;;0.80;0.77;;;11.30;99.90;;;;;;4954763;28;20028;-78
2023/05/14 09:24:44;;;;;;;0.85;0.85;;;11.40;99.90;;;;;;4954125;28;20027;-80
2023/05/14 09:27:18;;;;;;;0.93;0.63;;;11.30;99.90;;;;;;4955937;28;20504;-78
2023/05/14 09:29:44;;;;;;;0.80;0.77;;;11.30;99.90;;;;;;4955969;28;20030;-80
2023/05/14 09:32:10;;;;;;;1.13;0.93;;;11.30;99.90;;;;;;4954633;29;20027;-80
2023/05/14 09:34:38;;;;;;;0.90;0.90;;;11.30;99.90;;;;;;4954027;28;20503;-80
2023/05/14 09:37:08;;;;;;;0.90;0.90;;;11.30;99.90;;;;;;4954517;29;20034;-79
2023/05/14 09:39:35;;;;;;;1.42;1.33;;;11.40;99.90;;;;;;4954805;28;20082;-79
2023/05/14 09:42:01;;;;;;;1.10;1.10;;;11.40;99.90;;;;;;4954375;29;20062;-79
2023/05/14 09:44:27;;;;;;;1.50;1.40;;;11.40;99.90;;;;;;4954486;28;20411;-79
2023/05/14 09:46:53;;;;;;;6.38;0.85;;;11.50;99.90;;;;;;4954209;28;20038;-79
2023/05/14 09:49:20;;;;;;;0.95;0.90;;;11.40;99.90;;;;;;4955043;28;20023;-79
2023/05/14 09:51:47;;;;;;;1.10;1.00;;;11.80;99.90;;;;;;4954113;29;20046;-79
2023/05/14 09:54:13;;;;;;;3.92;0.75;;;11.80;99.90;;;;;;4954039;28;20488;-79
2023/05/14 09:56:40;;;;;;;0.68;0.68;;;11.70;99.90;;;;;;4955318;29;20030;-79
2023/05/14 09:59:05;;;;;;;0.60;0.60;;;11.60;99.90;;;;;;4955224;28;20054;-79
2023/05/14 10:01:31;;;;;;;1.10;0.90;;;11.50;99.90;;;;;;4954224;29;20446;-79
2023/05/14 10:03:58;;;;;;;0.75;0.60;;;11.50;99.90;;;;;;4953861;28;20031;-79
2023/05/14 10:06:33;;;;;;;0.80;0.75;;;11.40;99.90;;;;;;4954117;29;20480;-79
2023/05/14 10:09:04;;;;;;;1.08;0.98;;;11.30;99.90;;;;;;4955010;28;20035;-79
2023/05/14 10:11:33;;;;;;;0.65;0.65;;;11.20;99.90;;;;;;4954086;28;20398;-79
2023/05/14 10:14:07;;;;;;;0.70;0.70;;;11.10;99.90;;;;;;4953780;28;20023;-78
2023/05/14 10:16:36;;;;;;;0.70;0.63;;;11.00;99.90;;;;;;4953906;29;20081;-78
2023/05/14 10:19:09;;;;;;;0.60;0.60;;;11.00;99.90;;;;;;4954765;28;20492;-80
2023/05/14 10:21:36;;;;;;;0.70;0.47;;;10.90;99.90;;;;;;4953736;29;20034;-80
2023/05/14 10:24:03;;;;;;;2.20;0.98;;;11.00;99.90;;;;;;4954610;28;20035;-79
2023/05/14 10:26:31;;;;;;;0.40;0.40;;;11.10;99.90;;;;;;4953396;29;20028;-79
2023/05/14 10:28:58;;;;;;;2.38;0.50;;;11.10;99.90;;;;;;4953290;29;20400;-79
2023/05/14 10:31:46;;;;;;;0.50;0.50;;;11.00;99.90;;;;;;4953504;29;20038;-80
2023/05/14 10:34:42;;;;;;;0.50;0.50;;;10.90;99.90;;;;;;4953292;28;20506;-80
2023/05/14 10:37:42;;;;;;;3.63;0.68;;;10.90;99.90;;;;;;4953609;28;20027;-80
2023/05/14 10:40:08;;;;;;;0.90;0.40;;;11.00;99.90;;;;;;4938582;28;20028;-80
2023/05/14 10:42:42;;;;;;;0.47;0.47;;;11.10;99.90;;;;;;4953580;28;20023;-79
2023/05/14 10:45:12;;;;;;;1.23;0.50;;;11.20;99.90;;;;;;4954362;28;20067;-79
2023/05/14 10:47:41;;;;;;;0.30;0.30;;;11.40;99.90;;;;;;4952977;29;20031;-79
2023/05/14 10:50:09;;;;;;;0.47;0.47;;;11.50;99.90;;;;;;4952985;29;20034;-79
2023/05/14 10:52:35;;;;;;;0.45;0.45;;;11.50;99.90;;;;;;4952950;28;20492;-79
2023/05/14 10:55:06;;;;;;;0.47;0.47;;;11.50;99.90;;;;;;4952970;28;20033;-79
2023/05/14 10:57:33;;;;;;;1.75;0.50;;;11.50;99.90;;;;;;4953225;29;20023;-79
2023/05/14 11:00:00;;;;;;;0.50;0.50;;;11.50;99.90;;;;;;4954285;28;20055;-79
2023/05/14 11:02:37;;;;;;;0.75;0.63;;;11.50;99.90;;;;;;4954030;28;20391;-80
2023/05/14 11:05:07;;;;;;;0.85;0.57;;;11.60;99.90;;;;;;4954155;28;20051;-80
2023/05/14 11:07:38;;;;;;;0.47;0.47;;;11.70;99.90;;;;;;4952836;28;20030;-80
2023/05/14 11:10:11;;;;;;;0.40;0.40;;;11.70;99.90;;;;;;4954184;28;20485;-80
2023/05/14 11:12:40;;;;;;;0.70;0.70;;;11.70;99.90;;;;;;4952886;28;20030;-79
2023/05/14 11:15:11;;;;;;;1.95;0.50;;;11.70;99.90;;;;;;4953572;28;20091;-79
2023/05/14 11:17:39;;;;;;;0.45;0.45;;;11.60;99.90;;;;;;4952813;29;20059;-80
2023/05/14 11:20:06;;;;;;;0.30;0.30;;;11.60;99.90;;;;;;4952931;29;20033;-80
2023/05/14 11:22:32;;;;;;;0.43;0.43;;;11.70;99.90;;;;;;4952734;28;20030;-79
2023/05/14 11:24:57;;;;;;;0.70;0.40;;;11.70;99.90;;;;;;4953960;28;20057;-79
2023/05/14 11:27:23;;;;;;;1.33;0.20;;;11.80;99.90;;;;;;4954012;29;20458;-79
2023/05/14 11:29:49;;;;;;;0.10;0.10;;;11.80;99.90;;;;;;4954050;29;20495;-80
2023/05/14 11:32:16;;;;;;;0.20;0.20;;;11.70;99.90;;;;;;4953848;28;20074;-79
2023/05/14 11:34:43;;;;;;;0.20;0.20;;;11.60;99.90;;;;;;4953882;28;20035;-80
2023/05/14 11:37:11;;;;;;;0.43;0.43;;;11.50;99.90;;;;;;4953766;28;20416;-79
2023/05/14 11:39:37;;;;;;;0.30;0.30;;;11.50;99.90;;;;;;4952709;28;20159;-80
2023/05/14 11:42:11;;;;;;;0.40;0.40;;;11.50;99.90;;;;;;4953975;28;20071;-79
2023/05/14 11:44:41;;;;;;;1.10;0.30;;;11.60;99.90;;;;;;4953677;28;20082;-80
2023/05/14 11:47:06;;;;;;;0.20;0.20;;;11.60;99.90;;;;;;4952458;29;20034;-79
2023/05/14 11:49:34;;;;;;;0.32;0.32;;;11.50;99.90;;;;;;4952251;29;20035;-80
2023/05/14 11:52:02;;;;;;;0.20;0.20;;;11.50;99.90;;;;;;4953634;28;20031;-80
2023/05/14 11:54:28;;;;;;;0.63;0.63;;;11.50;99.90;;;;;;4952258;28;20031;-79
2023/05/14 11:56:55;;;;;;;0.15;0.15;;;11.60;99.90;;;;;;4953624;28;20031;-79
2023/05/14 11:59:24;;;;;;;0.17;0.17;;;11.60;99.90;;;;;;4955078;29;20046;-79
2023/05/14 12:01:51;;;;;;;0.20;0.20;;;11.60;99.90;;;;;;4954948;28;20027;-78
2023/05/14 12:04:21;;;;;;;0.55;0.30;;;11.60;99.90;;;;;;4955803;28;20086;-79
2023/05/14 12:06:50;;;;;;;0.20;0.20;;;11.50;99.90;;;;;;4957151;28;20031;-80
2023/05/14 12:09:19;;;;;;;0.20;0.20;;;11.50;99.90;;;;;;4957072;28;20030;-79
2023/05/14 12:11:46;;;;;;;0.50;0.50;;;11.40;99.90;;;;;;4957059;28;20516;-80
2023/05/14 12:14:19;;;;;;;0.50;0.50;;;11.40;99.90;;;;;;4956429;28;20027;-80
2023/05/14 12:16:46;;;;;;;0.10;0.10;;;11.40;99.90;;;;;;4956896;28;20023;-80
2023/05/14 12:19:14;;;;;;;0.55;0.20;;;11.30;99.90;;;;;;4957008;28;20023;-79
2023/05/14 12:21:42;;;;;;;0.40;0.20;;;11.30;99.90;;;;;;4957054;28;20111;-80
2023/05/14 12:24:20;;;;;;;0.60;0.60;;;11.20;99.90;;;;;;4955832;28;20035;-81
2023/05/14 12:26:48;;;;;;;17.23;7.55;;;11.30;99.90;;;;;;4955749;29;20128;-80
2023/05/14 12:29:14;;;;;;;31.15;17.45;;;11.40;99.90;;;;;;4955827;29;20031;-80
2023/05/14 12:31:49;;;;;;;20.15;12.30;;;11.40;99.90;;;;;;4955633;29;20024;-80
2023/05/14 12:34:16;;;;;;;10.55;7.88;;;11.50;99.90;;;;;;4956669;28;20492;-80
2023/05/14 12:36:42;;;;;;;9.15;8.30;;;11.40;99.90;;;;;;4956903;29;20039;-80
2023/05/14 12:39:09;;;;;;;4.47;4.07;;;11.40;99.90;;;;;;4955683;28;20027;-79
2023/05/14 12:41:35;;;;;;;1.65;1.52;;;11.50;99.90;;;;;;4956589;28;20054;-80
2023/05/14 12:44:02;;;;;;;0.35;0.35;;;11.50;99.90;;;;;;4955532;28;20477;-80
2023/05/14 12:46:28;;;;;;;0.93;0.38;;;11.50;99.90;;;;;;4955577;29;20519;-80